Time;durP1;ratioP1;P1;durP2;ratioP2;P2;SDS_P1;SDS_P2;PMS_P1;PMS_P2;Temp;Humidity;BMP_temperature;BMP_pressure;BME280_temperature;BME280_humidity;BME280_pressure;Samples;Min_cycle;Max_cycle;Signal;HPM_P1;HPM_P2
2024/05/04 00:01:24;;;;;;;3.87;3.57;;;9.90;99.90;;;;;;5347350;26;20236;-77
2024/05/04 00:03:52;;;;;;;3.40;3.10;;;9.90;99.90;;;;;;5347514;26;20236;-77
2024/05/04 00:06:21;;;;;;;4.87;3.47;;;9.90;99.90;;;;;;5347287;26;20299;-78
2024/05/04 00:08:50;;;;;;;3.63;3.30;;;10.00;99.90;;;;;;5347278;26;20347;-78
2024/05/04 00:11:21;;;;;;;3.23;2.93;;;10.10;99.90;;;;;;5347404;26;20232;-78
2024/05/04 00:13:50;;;;;;;5.20;3.13;;;10.00;99.90;;;;;;5347360;26;20279;-78
2024/05/04 00:16:18;;;;;;;3.03;2.83;;;10.10;99.90;;;;;;5347114;26;20324;-78
2024/05/04 00:18:47;;;;;;;3.40;3.10;;;10.00;99.90;;;;;;5346989;26;20243;-78
2024/05/04 00:21:16;;;;;;;2.70;2.50;;;10.00;99.90;;;;;;5347080;26;20295;-78
2024/05/04 00:23:45;;;;;;;2.80;2.60;;;10.00;99.90;;;;;;5347272;26;20614;-78
2024/05/04 00:26:13;;;;;;;2.83;2.53;;;10.00;99.90;;;;;;5346728;26;20232;-78
2024/05/04 00:28:45;;;;;;;2.93;2.73;;;10.10;99.90;;;;;;5347395;26;20450;-78
2024/05/04 00:31:14;;;;;;;2.83;2.63;;;10.20;99.90;;;;;;5363906;26;20301;-78
2024/05/04 00:33:42;;;;;;;2.80;2.60;;;10.20;99.90;;;;;;5381884;26;20285;-77
2024/05/04 00:36:12;;;;;;;2.80;2.30;;;10.30;99.90;;;;;;5381952;26;20298;-78
2024/05/04 00:38:41;;;;;;;2.87;2.67;;;10.20;99.90;;;;;;5381725;26;20277;-78
2024/05/04 00:41:09;;;;;;;2.60;2.40;;;10.20;99.90;;;;;;5381841;26;20586;-77
2024/05/04 00:43:38;;;;;;;3.17;2.50;;;10.20;99.90;;;;;;5381691;26;20230;-78
2024/05/04 00:46:10;;;;;;;2.63;2.43;;;10.10;99.90;;;;;;5381520;26;20898;-77
2024/05/04 00:48:39;;;;;;;3.10;2.80;;;10.20;99.90;;;;;;5381556;26;20329;-78
2024/05/04 00:51:12;;;;;;;2.83;2.63;;;10.20;99.90;;;;;;5381641;26;20230;-77
2024/05/04 00:53:42;;;;;;;3.20;2.90;;;10.10;99.90;;;;;;5381919;26;20234;-77
2024/05/04 00:56:15;;;;;;;3.27;2.33;;;10.10;99.90;;;;;;5381651;26;20278;-78
2024/05/04 00:58:44;;;;;;;2.50;2.30;;;10.00;99.90;;;;;;5381791;26;20375;-78
2024/05/04 01:01:15;;;;;;;2.70;2.50;;;10.00;99.90;;;;;;5381489;26;20345;-77
2024/05/04 01:03:44;;;;;;;3.17;2.60;;;10.00;99.90;;;;;;5381603;26;20234;-78
2024/05/04 01:06:14;;;;;;;2.53;2.33;;;10.10;99.90;;;;;;5381431;26;20357;-77
2024/05/04 01:08:43;;;;;;;3.00;2.40;;;10.10;99.90;;;;;;5381449;26;20578;-77
2024/05/04 01:11:12;;;;;;;3.17;2.87;;;10.10;99.90;;;;;;5381803;26;20251;-77
2024/05/04 01:13:45;;;;;;;2.60;2.40;;;10.20;99.90;;;;;;5381529;26;20234;-77
2024/05/04 01:16:16;;;;;;;2.87;2.67;;;10.20;99.90;;;;;;5381342;26;20230;-77
2024/05/04 01:18:45;;;;;;;2.53;2.33;;;10.20;99.90;;;;;;5381467;26;20281;-77
2024/05/04 01:21:14;;;;;;;2.53;2.33;;;10.20;99.90;;;;;;5381375;26;20266;-77
2024/05/04 01:23:46;;;;;;;2.70;2.50;;;10.20;99.90;;;;;;5381181;26;20260;-78
2024/05/04 01:26:14;;;;;;;2.73;2.53;;;10.20;99.90;;;;;;5381291;26;20258;-78
2024/05/04 01:28:43;;;;;;;2.33;2.13;;;10.10;99.90;;;;;;5381059;26;20255;-78
2024/05/04 01:31:12;;;;;;;2.63;2.43;;;10.10;99.90;;;;;;5381302;26;20334;-78
2024/05/04 01:33:41;;;;;;;2.50;2.30;;;10.10;99.90;;;;;;5381155;26;20278;-78
2024/05/04 01:36:09;;;;;;;2.30;2.10;;;10.10;99.90;;;;;;5380959;26;20238;-77
2024/05/04 01:38:38;;;;;;;3.37;2.70;;;10.00;99.90;;;;;;5380066;26;20347;-77
2024/05/04 01:41:10;;;;;;;2.73;2.53;;;10.00;99.90;;;;;;5381131;26;20231;-77
2024/05/04 01:43:38;;;;;;;3.33;2.70;;;10.00;99.90;;;;;;5380828;26;20278;-77
2024/05/04 01:46:07;;;;;;;2.63;2.37;;;9.90;99.90;;;;;;5380946;26;20286;-78
2024/05/04 01:48:35;;;;;;;2.90;2.57;;;9.80;99.90;;;;;;5380810;26;20323;-78
2024/05/04 01:51:11;;;;;;;2.03;1.93;;;9.70;99.90;;;;;;5380749;26;20286;-77
2024/05/04 01:53:40;;;;;;;2.60;2.40;;;9.70;99.90;;;;;;5380683;26;20226;-77
2024/05/04 01:56:14;;;;;;;2.60;2.40;;;9.60;99.90;;;;;;5380839;26;20226;-77
2024/05/04 01:58:42;;;;;;;2.60;2.40;;;9.60;99.90;;;;;;5380612;26;20319;-77
2024/05/04 02:01:16;;;;;;;2.40;2.20;;;9.60;99.90;;;;;;5380687;26;20234;-77
2024/05/04 02:03:45;;;;;;;2.60;2.40;;;9.50;99.90;;;;;;5380755;26;20694;-77
2024/05/04 02:06:14;;;;;;;2.33;2.13;;;9.50;99.90;;;;;;5380791;26;20334;-77
2024/05/04 02:08:43;;;;;;;2.43;2.23;;;9.50;99.90;;;;;;5380883;26;20295;-78
2024/05/04 02:11:14;;;;;;;2.47;2.27;;;9.50;99.90;;;;;;5380846;26;20231;-77
2024/05/04 02:13:43;;;;;;;2.33;2.20;;;9.50;99.90;;;;;;5380454;26;20781;-78
2024/05/04 02:16:12;;;;;;;2.47;2.27;;;9.40;99.90;;;;;;5380511;26;20694;-77
2024/05/04 02:18:41;;;;;;;2.70;2.50;;;9.50;99.90;;;;;;5380372;26;20717;-77
2024/05/04 02:21:09;;;;;;;2.40;2.20;;;9.50;99.90;;;;;;5380412;26;20327;-77
2024/05/04 02:23:38;;;;;;;2.50;2.30;;;9.50;99.90;;;;;;5380344;26;20282;-77
2024/05/04 02:26:07;;;;;;;2.70;2.50;;;9.50;99.90;;;;;;5380538;26;20260;-77
2024/05/04 02:28:38;;;;;;;2.43;2.33;;;9.50;99.90;;;;;;5380066;26;20247;-77
2024/05/04 02:31:07;;;;;;;2.73;2.50;;;9.50;99.90;;;;;;5380292;26;20274;-77
2024/05/04 02:33:36;;;;;;;2.30;2.20;;;9.30;99.90;;;;;;5380283;26;20344;-77
2024/05/04 02:36:04;;;;;;;2.60;2.40;;;9.30;99.90;;;;;;5380124;26;20231;-77
2024/05/04 02:38:33;;;;;;;2.47;2.33;;;9.30;99.90;;;;;;5380083;26;20350;-78
2024/05/04 02:41:02;;;;;;;2.57;2.40;;;9.30;99.90;;;;;;5380002;26;20230;-78
2024/05/04 02:43:31;;;;;;;2.37;2.20;;;9.20;99.90;;;;;;5380404;26;20266;-78
2024/05/04 02:46:02;;;;;;;2.70;2.50;;;9.20;99.90;;;;;;5380153;26;20354;-78
2024/05/04 02:48:31;;;;;;;2.80;2.60;;;9.20;99.90;;;;;;5380083;26;20344;-77
2024/05/04 02:50:59;;;;;;;2.80;2.60;;;9.20;99.90;;;;;;5381405;26;20294;-78
2024/05/04 02:53:28;;;;;;;2.67;2.47;;;9.20;99.90;;;;;;5383324;26;20303;-77
2024/05/04 02:56:00;;;;;;;2.77;2.57;;;9.10;99.90;;;;;;5383478;26;20278;-77
2024/05/04 02:58:29;;;;;;;2.40;2.20;;;9.10;99.90;;;;;;5383140;26;20342;-77
2024/05/04 03:00:57;;;;;;;2.60;2.40;;;9.10;99.90;;;;;;5383415;26;20274;-78
2024/05/04 03:03:29;;;;;;;2.47;2.30;;;9.10;99.90;;;;;;5383394;26;20278;-77
2024/05/04 03:05:57;;;;;;;3.33;2.60;;;9.10;99.90;;;;;;5383303;26;20725;-78
2024/05/04 03:08:26;;;;;;;2.67;2.43;;;9.10;99.90;;;;;;5383065;26;20728;-77
2024/05/04 03:10:55;;;;;;;2.77;2.57;;;9.20;99.90;;;;;;5383103;26;20333;-78
2024/05/04 03:13:23;;;;;;;2.90;2.40;;;9.20;99.90;;;;;;5383029;26;20322;-78
2024/05/04 03:15:52;;;;;;;2.37;2.27;;;9.10;99.90;;;;;;5382953;26;20713;-77
2024/05/04 03:18:21;;;;;;;2.57;2.37;;;9.10;99.90;;;;;;5382878;26;20231;-78
2024/05/04 03:20:52;;;;;;;2.40;2.20;;;9.00;99.90;;;;;;5383193;26;20635;-78
2024/05/04 03:23:21;;;;;;;2.30;2.20;;;9.00;99.90;;;;;;5382887;26;20765;-78
2024/05/04 03:25:51;;;;;;;2.50;2.30;;;9.00;99.90;;;;;;5382819;26;20234;-77
2024/05/04 03:28:20;;;;;;;2.50;2.30;;;8.90;99.90;;;;;;5382559;26;20231;-77
2024/05/04 03:30:49;;;;;;;2.67;2.47;;;8.90;99.90;;;;;;5382657;26;20253;-77
2024/05/04 03:33:17;;;;;;;2.60;2.40;;;8.90;99.90;;;;;;5382710;26;20239;-77
2024/05/04 03:35:46;;;;;;;2.40;2.20;;;8.80;99.90;;;;;;5382859;26;20230;-77
2024/05/04 03:38:18;;;;;;;2.53;2.30;;;8.80;99.90;;;;;;5382558;26;20261;-77
2024/05/04 03:40:46;;;;;;;2.93;2.50;;;8.80;99.90;;;;;;5382516;26;20218;-77
2024/05/04 03:43:15;;;;;;;2.50;2.30;;;8.80;99.90;;;;;;5382233;26;20276;-78
2024/05/04 03:45:44;;;;;;;2.90;2.53;;;8.80;99.90;;;;;;5382183;26;20716;-78
2024/05/04 03:48:12;;;;;;;2.30;2.10;;;8.80;99.90;;;;;;5381757;26;20234;-78
2024/05/04 03:50:41;;;;;;;2.43;2.23;;;8.70;99.90;;;;;;5381743;26;20261;-78
2024/05/04 03:53:10;;;;;;;2.70;2.50;;;8.70;99.90;;;;;;5381991;26;20353;-77
2024/05/04 03:55:41;;;;;;;2.60;2.37;;;8.70;99.90;;;;;;5381475;26;20344;-78
2024/05/04 03:58:10;;;;;;;2.70;2.50;;;8.70;99.90;;;;;;5381708;26;20284;-78
2024/05/04 04:00:38;;;;;;;2.50;2.30;;;8.70;99.90;;;;;;5382216;26;20356;-78
2024/05/04 04:03:08;;;;;;;2.40;2.20;;;8.70;99.90;;;;;;5380925;26;20265;-78
2024/05/04 04:05:37;;;;;;;2.07;1.97;;;8.60;99.90;;;;;;5381131;26;20230;-78
2024/05/04 04:08:07;;;;;;;2.50;2.30;;;8.60;99.90;;;;;;5380562;26;20725;-78
2024/05/04 04:10:35;;;;;;;2.60;2.40;;;8.60;99.90;;;;;;5381596;26;20239;-78
2024/05/04 04:13:07;;;;;;;2.27;2.17;;;8.60;99.90;;;;;;5382045;26;20281;-78
2024/05/04 04:15:37;;;;;;;3.30;2.10;;;8.60;99.90;;;;;;5382191;26;20234;-78
2024/05/04 04:18:07;;;;;;;2.50;2.23;;;8.60;99.90;;;;;;5382525;26;20733;-78
2024/05/04 04:20:35;;;;;;;2.60;2.40;;;8.50;99.90;;;;;;5382369;26;20349;-78
2024/05/04 04:23:04;;;;;;;2.97;2.40;;;8.50;99.90;;;;;;5382030;26;20234;-78
2024/05/04 04:25:33;;;;;;;2.60;2.40;;;8.60;99.90;;;;;;5382101;26;20666;-78
2024/05/04 04:28:01;;;;;;;2.20;2.10;;;8.60;99.90;;;;;;5381880;26;20353;-78
2024/05/04 04:30:33;;;;;;;4.90;2.67;;;8.60;99.90;;;;;;5381755;26;20270;-78
2024/05/04 04:33:01;;;;;;;3.60;2.23;;;8.60;99.90;;;;;;5381926;26;20798;-78
2024/05/04 04:35:31;;;;;;;2.40;2.20;;;8.70;99.90;;;;;;5381797;26;20242;-78
2024/05/04 04:38:00;;;;;;;2.50;2.40;;;8.60;99.90;;;;;;5381797;26;20269;-78
2024/05/04 04:40:29;;;;;;;2.30;2.17;;;8.60;99.90;;;;;;5381742;26;20247;-78
2024/05/04 04:42:57;;;;;;;2.73;2.53;;;8.60;99.90;;;;;;5382163;26;20347;-77
2024/05/04 04:45:29;;;;;;;2.60;2.40;;;8.60;99.90;;;;;;5381668;26;20238;-77
2024/05/04 04:48:01;;;;;;;2.97;2.40;;;8.60;99.90;;;;;;5382049;26;20566;-78
2024/05/04 04:50:30;;;;;;;2.77;2.50;;;8.60;99.90;;;;;;5381743;26;20725;-78
2024/05/04 04:52:58;;;;;;;2.63;2.43;;;8.60;99.90;;;;;;5381643;26;20230;-78
2024/05/04 04:55:27;;;;;;;2.60;2.40;;;8.60;99.90;;;;;;5381788;26;20664;-78
2024/05/04 04:57:56;;;;;;;2.63;2.43;;;8.60;99.90;;;;;;5381660;26;20667;-78
2024/05/04 05:00:24;;;;;;;2.67;2.47;;;8.60;99.90;;;;;;5381572;26;20310;-78
2024/05/04 05:02:53;;;;;;;5.50;2.87;;;8.60;99.90;;;;;;5381578;26;20326;-78
2024/05/04 05:05:32;;;;;;;3.57;2.30;;;8.70;99.90;;;;;;5381278;26;20840;-77
2024/05/04 05:08:13;;;;;;;2.90;2.70;;;8.70;99.90;;;;;;5382048;26;20230;-78
2024/05/04 05:10:41;;;;;;;2.50;2.30;;;8.60;99.90;;;;;;5381655;26;20250;-77
2024/05/04 05:13:10;;;;;;;3.13;2.80;;;8.50;99.90;;;;;;5380058;26;20235;-78
2024/05/04 05:15:39;;;;;;;3.77;2.90;;;8.50;99.90;;;;;;5381888;26;20231;-77
2024/05/04 05:18:08;;;;;;;3.10;2.77;;;8.60;99.90;;;;;;5380520;26;20280;-77
2024/05/04 05:20:42;;;;;;;3.20;2.90;;;8.70;99.90;;;;;;5381193;26;20804;-78
2024/05/04 05:23:11;;;;;;;2.80;2.60;;;8.80;99.90;;;;;;5379808;26;20684;-77
2024/05/04 05:25:40;;;;;;;2.83;2.63;;;8.70;99.90;;;;;;5380952;26;20754;-77
2024/05/04 05:28:12;;;;;;;2.60;2.40;;;8.90;99.90;;;;;;5380990;26;20365;-77
2024/05/04 05:30:41;;;;;;;2.60;2.40;;;9.10;99.90;;;;;;5381042;26;20269;-77
2024/05/04 05:33:13;;;;;;;3.70;2.67;;;9.20;99.90;;;;;;5379337;26;20289;-77
2024/05/04 05:35:44;;;;;;;3.53;2.67;;;9.40;99.90;;;;;;5378912;26;20276;-77
2024/05/04 05:38:13;;;;;;;3.40;2.63;;;9.50;99.90;;;;;;5376358;26;20238;-78
2024/05/04 05:40:41;;;;;;;3.00;2.80;;;9.50;99.90;;;;;;5380853;26;20352;-77
2024/05/04 05:43:10;;;;;;;3.20;2.73;;;9.70;99.90;;;;;;5380938;26;20306;-78
2024/05/04 05:45:55;;;;;;;2.57;2.37;;;9.70;99.90;;;;;;5380882;26;20267;-78
2024/05/04 05:48:23;;;;;;;3.20;2.90;;;9.70;99.90;;;;;;5381093;26;20662;-77
2024/05/04 05:50:55;;;;;;;2.80;2.60;;;9.80;99.90;;;;;;5380986;26;20238;-77
2024/05/04 05:53:23;;;;;;;3.00;2.80;;;9.70;99.90;;;;;;5380836;26;20242;-77
2024/05/04 05:55:52;;;;;;;3.03;2.83;;;9.70;99.90;;;;;;5380676;26;20231;-77
2024/05/04 05:58:21;;;;;;;2.80;2.57;;;9.60;99.90;;;;;;5380922;26;20246;-77
2024/05/04 06:00:49;;;;;;;3.03;2.80;;;9.50;99.90;;;;;;5380673;26;20234;-77
2024/05/04 06:03:21;;;;;;;2.80;2.50;;;9.40;99.90;;;;;;5380861;26;20231;-77
2024/05/04 06:05:50;;;;;;;2.60;2.40;;;9.50;99.90;;;;;;5380803;26;20230;-77
2024/05/04 06:08:21;;;;;;;3.63;3.17;;;9.60;99.90;;;;;;5380292;26;20238;-78
2024/05/04 06:10:53;;;;;;;2.90;2.70;;;9.80;99.90;;;;;;5380445;26;20322;-77
2024/05/04 06:13:22;;;;;;;2.53;2.30;;;9.80;99.90;;;;;;5380476;26;20238;-77
2024/05/04 06:15:51;;;;;;;2.87;2.67;;;10.10;99.90;;;;;;5380578;26;20316;-77
2024/05/04 06:18:19;;;;;;;2.90;2.67;;;10.30;99.90;;;;;;5379998;26;20934;-77
2024/05/04 06:20:48;;;;;;;2.60;2.40;;;10.70;99.90;;;;;;5380509;26;20774;-76
2024/05/04 06:23:17;;;;;;;2.27;2.13;;;10.90;99.90;;;;;;5380501;26;20235;-78
2024/05/04 06:25:48;;;;;;;2.10;2.00;;;11.00;99.90;;;;;;5380089;26;20345;-78
2024/05/04 06:28:17;;;;;;;2.00;1.90;;;11.20;99.90;;;;;;5380066;26;20706;-78
2024/05/04 06:30:46;;;;;;;2.10;1.90;;;11.50;99.90;;;;;;5380198;26;20277;-78
2024/05/04 06:33:15;;;;;;;2.10;1.90;;;11.70;99.90;;;;;;5379557;26;20298;-77
2024/05/04 06:35:44;;;;;;;2.33;2.13;;;11.80;99.90;;;;;;5345064;26;20622;-78
2024/05/04 06:38:14;;;;;;;1.73;1.63;;;11.90;99.90;;;;;;5345285;26;20243;-78
2024/05/04 06:40:42;;;;;;;2.00;1.90;;;12.10;99.90;;;;;;5345155;26;20272;-78
2024/05/04 06:43:14;;;;;;;2.80;1.80;;;12.30;99.90;;;;;;5345168;26;20710;-76
2024/05/04 06:45:42;;;;;;;1.90;1.80;;;12.50;99.90;;;;;;5345092;26;20710;-77
2024/05/04 06:48:13;;;;;;;1.80;1.70;;;12.60;99.90;;;;;;5345219;26;20239;-78
2024/05/04 06:50:42;;;;;;;1.97;1.60;;;12.70;99.90;;;;;;5368359;26;20290;-78
2024/05/04 06:53:11;;;;;;;2.20;2.00;;;12.80;99.90;;;;;;5379751;26;20733;-78
2024/05/04 06:55:39;;;;;;;2.30;1.80;;;13.00;99.90;;;;;;5380167;26;20268;-78
2024/05/04 06:58:09;;;;;;;4.90;2.03;;;13.10;99.90;;;;;;5379764;26;20286;-78
2024/05/04 07:00:40;;;;;;;1.63;1.53;;;13.20;99.90;;;;;;5379739;26;20400;-77
2024/05/04 07:03:09;;;;;;;2.20;1.70;;;13.40;99.90;;;;;;5379482;26;20741;-78
2024/05/04 07:05:38;;;;;;;1.90;1.37;;;13.50;99.90;;;;;;5349549;26;20699;-76
2024/05/04 07:08:07;;;;;;;2.42;1.60;;;13.60;99.90;;;;;;5342302;26;20303;-78
2024/05/04 07:10:36;;;;;;;2.03;1.83;;;13.80;99.90;;;;;;5364967;26;20779;-77
2024/05/04 07:13:05;;;;;;;2.08;1.85;;;14.10;99.90;;;;;;5377519;26;20273;-77
2024/05/04 07:15:34;;;;;;;1.70;1.50;;;14.30;99.90;;;;;;5377323;26;20298;-77
2024/05/04 07:18:05;;;;;;;4.53;2.10;;;14.40;99.90;;;;;;5377392;26;20710;-77
2024/05/04 07:20:34;;;;;;;2.60;2.05;;;14.60;99.90;;;;;;5376870;26;20347;-76
2024/05/04 07:23:03;;;;;;;3.33;1.80;;;14.70;99.90;;;;;;5376781;26;20293;-77
2024/05/04 07:25:32;;;;;;;2.72;1.92;;;14.80;99.90;;;;;;5377018;26;20243;-77
2024/05/04 07:28:00;;;;;;;2.83;1.70;;;14.90;99.90;;;;;;5367195;26;20231;-77
2024/05/04 07:30:29;;;;;;;2.65;1.90;;;14.90;99.90;;;;;;5371479;26;20250;-78
2024/05/04 07:32:58;;;;;;;2.38;1.83;;;14.80;99.90;;;;;;5376733;26;20246;-78
2024/05/04 07:35:30;;;;;;;2.63;1.73;;;14.60;99.90;;;;;;5376877;26;20700;-77
2024/05/04 07:37:59;;;;;;;1.75;1.65;;;14.50;99.90;;;;;;5379632;26;20806;-78
2024/05/04 07:40:27;;;;;;;2.53;1.83;;;14.40;99.90;;;;;;5380468;26;20383;-78
2024/05/04 07:42:56;;;;;;;1.70;1.60;;;14.40;99.90;;;;;;5380465;26;20327;-77
2024/05/04 07:45:25;;;;;;;1.80;1.70;;;14.30;99.90;;;;;;5380147;26;20272;-78
2024/05/04 07:47:54;;;;;;;1.90;1.80;;;14.30;99.90;;;;;;5380809;26;20364;-77
2024/05/04 07:50:23;;;;;;;2.17;1.80;;;14.40;99.90;;;;;;5380452;26;20246;-77
2024/05/04 07:52:57;;;;;;;2.25;2.05;;;14.60;99.90;;;;;;5380732;26;20273;-77
2024/05/04 07:55:26;;;;;;;2.83;1.98;;;14.70;99.90;;;;;;5380841;26;20380;-78
2024/05/04 07:57:55;;;;;;;2.35;2.03;;;14.90;99.90;;;;;;5380851;26;20698;-79
2024/05/04 08:00:24;;;;;;;2.10;1.90;;;15.00;99.90;;;;;;5382087;26;20250;-79
2024/05/04 08:02:53;;;;;;;2.13;1.95;;;15.10;99.90;;;;;;5390685;26;20249;-79
2024/05/04 08:05:21;;;;;;;2.20;1.65;;;15.20;99.90;;;;;;5381365;26;20234;-78
2024/05/04 08:07:50;;;;;;;2.25;1.75;;;15.30;99.90;;;;;;5379728;26;20262;-78
2024/05/04 08:10:22;;;;;;;4.25;2.33;;;15.40;99.90;;;;;;5373549;26;20250;-78
2024/05/04 08:12:50;;;;;;;1.70;1.60;;;15.50;99.90;;;;;;5385516;26;20364;-81
2024/05/04 08:15:19;;;;;;;1.52;1.42;;;15.60;99.90;;;;;;5376821;26;20250;-78
2024/05/04 08:17:48;;;;;;;2.65;1.92;;;15.60;99.90;;;;;;5376284;26;20302;-78
2024/05/04 08:20:17;;;;;;;2.53;1.55;;;15.60;99.90;;;;;;5372491;26;20310;-77
2024/05/04 08:22:45;;;;;;;2.50;1.50;;;15.60;99.60;;;;;;5418119;26;20362;-78
2024/05/04 08:25:14;;;;;;;2.83;1.40;;;15.60;99.90;;;;;;5410727;26;20826;-77
2024/05/04 08:27:47;;;;;;;2.58;1.40;;;15.60;99.90;;;;;;5382131;26;20293;-77
2024/05/04 08:30:18;;;;;;;2.20;2.00;;;15.60;99.90;;;;;;5382809;26;20258;-77
2024/05/04 08:32:47;;;;;;;2.47;1.88;;;15.50;99.90;;;;;;5382226;26;20605;-76
2024/05/04 08:35:16;;;;;;;1.88;1.35;;;15.50;99.90;;;;;;5382068;26;20335;-77
2024/05/04 08:37:45;;;;;;;1.80;1.25;;;15.80;99.90;;;;;;5381801;26;20336;-77
2024/05/04 08:40:14;;;;;;;1.90;1.20;;;16.00;99.60;;;;;;5383020;26;20285;-78
2024/05/04 08:42:45;;;;;;;2.53;1.50;;;16.00;99.10;;;;;;5382302;26;20250;-78
2024/05/04 08:45:17;;;;;;;1.85;1.42;;;15.90;99.60;;;;;;5382662;26;20262;-78
2024/05/04 08:47:48;;;;;;;1.95;1.58;;;15.90;99.60;;;;;;5357002;26;20243;-77
2024/05/04 08:50:18;;;;;;;1.70;1.60;;;15.80;99.80;;;;;;5346724;26;20251;-77
2024/05/04 08:52:47;;;;;;;3.03;1.85;;;15.50;99.50;;;;;;5365641;26;20695;-75
2024/05/04 08:55:15;;;;;;;3.08;1.80;;;15.70;99.90;;;;;;5381736;26;20242;-77
2024/05/04 08:57:49;;;;;;;1.90;1.60;;;16.00;99.90;;;;;;5368977;26;20247;-76
2024/05/04 09:00:19;;;;;;;1.60;1.50;;;16.10;99.50;;;;;;5346490;26;20373;-76
2024/05/04 09:02:48;;;;;;;2.53;1.80;;;16.50;99.10;;;;;;5350393;26;20925;-77
2024/05/04 09:05:18;;;;;;;3.58;2.10;;;16.60;98.30;;;;;;5380728;26;20294;-77
2024/05/04 09:07:48;;;;;;;2.17;1.98;;;16.40;98.50;;;;;;5401171;26;20293;-77
2024/05/04 09:10:16;;;;;;;2.08;1.80;;;16.20;98.80;;;;;;5381456;26;20238;-73
2024/05/04 09:12:54;;;;;;;2.42;1.73;;;16.40;99.90;;;;;;5381406;26;20230;-75
2024/05/04 09:15:23;;;;;;;3.47;2.00;;;17.10;98.80;;;;;;5381462;26;20325;-76
2024/05/04 09:17:52;;;;;;;2.97;1.60;;;17.20;97.60;;;;;;5368849;26;20243;-74
2024/05/04 09:20:21;;;;;;;2.75;1.98;;;17.00;97.20;;;;;;5346368;26;20297;-74
2024/05/04 09:22:50;;;;;;;3.63;1.90;;;17.00;97.60;;;;;;5415093;21;20322;-87
2024/05/04 09:25:18;;;;;;;1.75;1.65;;;16.90;97.70;;;;;;5375099;26;20289;-85
2024/05/04 09:27:50;;;;;;;2.03;1.77;;;16.90;98.10;;;;;;5357954;26;20339;-77
2024/05/04 09:30:18;;;;;;;2.35;1.80;;;17.50;96.30;;;;;;5335417;26;20447;-84
2024/05/04 09:32:52;;;;;;;1.67;1.50;;;18.20;95.60;;;;;;5345881;26;20240;-86
2024/05/04 09:35:24;;;;;;;1.80;1.67;;;18.90;96.70;;;;;;5343112;26;20239;-81
2024/05/04 09:38:01;;;;;;;1.75;1.65;;;19.30;96.30;;;;;;5347084;26;20953;-83
2024/05/04 09:40:31;;;;;;;1.73;1.40;;;19.20;95.00;;;;;;5344601;26;20243;-85
2024/05/04 09:43:03;;;;;;;2.25;1.48;;;19.50;94.10;;;;;;5347759;26;20340;-88
2024/05/04 09:45:33;;;;;;;4.07;1.90;;;19.70;94.30;;;;;;5349656;26;20268;-86
2024/05/04 09:48:03;;;;;;;11.52;2.20;;;19.80;92.90;;;;;;5345347;26;20322;-88
2024/05/04 09:50:32;;;;;;;1.95;1.75;;;20.10;92.90;;;;;;5347264;26;20317;-87
2024/05/04 09:53:01;;;;;;;2.40;1.90;;;22.10;92.50;;;;;;5350018;26;20373;-84
2024/05/04 09:55:32;;;;;;;2.40;1.70;;;20.50;92.20;;;;;;5344727;26;20247;-86
2024/05/04 09:58:08;;;;;;;2.15;1.88;;;20.50;90.90;;;;;;5346113;26;20726;-88
2024/05/04 10:00:41;;;;;;;2.00;1.90;;;20.20;90.30;;;;;;5344756;26;20301;-85
2024/05/04 10:03:12;;;;;;;2.10;1.88;;;19.70;92.30;;;;;;5345819;26;20243;-86
2024/05/04 10:05:42;;;;;;;2.97;1.80;;;19.40;92.30;;;;;;5345328;26;20236;-87
2024/05/04 10:08:13;;;;;;;2.90;2.40;;;19.70;93.60;;;;;;5345636;26;20244;-87
2024/05/04 10:10:42;;;;;;;1.95;1.80;;;19.80;92.10;;;;;;5343536;26;20228;-88
2024/05/04 10:13:19;;;;;;;1.90;1.70;;;20.10;91.50;;;;;;5345908;26;20340;-85
2024/05/04 10:15:48;;;;;;;1.60;1.50;;;20.50;91.10;;;;;;5350460;26;20247;-86
2024/05/04 10:18:16;;;;;;;2.20;1.95;;;20.90;90.50;;;;;;5348183;26;20291;-83
2024/05/04 10:20:46;;;;;;;2.08;1.88;;;20.60;89.80;;;;;;5344663;26;20299;-84
2024/05/04 10:23:15;;;;;;;1.65;1.20;;;20.50;91.10;;;;;;5346076;26;20266;-86
2024/05/04 10:25:48;;;;;;;1.60;1.50;;;20.80;91.10;;;;;;5345349;26;20354;-84
2024/05/04 10:28:20;;;;;;;1.88;1.77;;;21.50;92.30;;;;;;5349890;26;20243;-84
2024/05/04 10:30:54;;;;;;;1.73;1.63;;;21.70;90.00;;;;;;5332702;26;20259;-86
2024/05/04 10:33:23;;;;;;;4.50;1.88;;;22.00;90.60;;;;;;5341612;26;20278;-86
2024/05/04 10:35:52;;;;;;;1.63;1.52;;;22.40;85.50;;;;;;5346296;26;20757;-84
2024/05/04 10:38:21;;;;;;;2.17;1.77;;;21.80;87.30;;;;;;5345454;26;20240;-85
2024/05/04 10:40:50;;;;;;;4.57;2.40;;;21.60;87.40;;;;;;5343352;26;20651;-85
2024/05/04 10:43:21;;;;;;;2.13;1.90;;;21.60;85.10;;;;;;5345143;26;20248;-82
2024/05/04 10:45:50;;;;;;;1.80;1.70;;;20.90;88.10;;;;;;5337783;26;20370;-86
2024/05/04 10:48:21;;;;;;;2.58;1.40;;;20.50;89.40;;;;;;5344628;26;20654;-86
2024/05/04 10:50:51;;;;;;;1.80;1.70;;;20.90;90.50;;;;;;5342490;26;20987;-86
2024/05/04 10:53:20;;;;;;;1.83;1.73;;;21.50;87.10;;;;;;5345078;26;20718;-86
2024/05/04 10:55:49;;;;;;;1.77;1.67;;;21.80;86.30;;;;;;5345083;26;20251;-87
2024/05/04 10:58:18;;;;;;;2.13;1.92;;;21.80;86.10;;;;;;5343920;26;20594;-88
2024/05/04 11:00:50;;;;;;;1.77;1.67;;;21.90;84.30;;;;;;5340556;26;20251;-83
2024/05/04 11:03:20;;;;;;;1.77;1.48;;;22.30;88.60;;;;;;5344092;26;20252;-84
2024/05/04 11:05:50;;;;;;;1.50;1.30;;;;;;;;;;5343284;26;20251;-86
2024/05/04 11:08:19;;;;;;;2.00;1.90;;;23.10;82.60;;;;;;5338492;26;20287;-87
2024/05/04 11:10:48;;;;;;;2.20;2.00;;;22.70;82.30;;;;;;5341230;26;20247;-85
2024/05/04 11:13:18;;;;;;;1.80;1.70;;;22.60;85.40;;;;;;5344837;26;20251;-84
2024/05/04 11:15:50;;;;;;;1.50;1.40;;;22.70;87.50;;;;;;5340252;26;20354;-84
2024/05/04 11:18:18;;;;;;;1.92;1.70;;;22.30;85.10;;;;;;5345144;26;20286;-83
2024/05/04 11:20:55;;;;;;;1.85;1.70;;;22.00;85.70;;;;;;5343159;26;20248;-85
2024/05/04 11:23:24;;;;;;;1.98;1.88;;;22.10;88.90;;;;;;5344158;26;20254;-84
2024/05/04 11:25:53;;;;;;;1.77;1.50;;;22.00;86.00;;;;;;5347183;26;20240;-86
2024/05/04 11:28:28;;;;;;;1.80;1.70;;;21.80;84.90;;;;;;5346443;26;20243;-86
2024/05/04 11:30:59;;;;;;;1.60;1.50;;;22.00;84.40;;;;;;5334210;26;20306;-84
2024/05/04 11:33:28;;;;;;;1.50;1.42;;;21.90;87.20;;;;;;5342356;26;20587;-86
2024/05/04 11:35:57;;;;;;;2.10;2.00;;;22.10;88.20;;;;;;5344770;26;20252;-84
2024/05/04 11:38:25;;;;;;;1.42;1.30;;;21.80;83.10;;;;;;5345752;26;20240;-84
2024/05/04 11:40:54;;;;;;;1.50;1.40;;;21.50;85.00;;;;;;5345541;26;20259;-87
2024/05/04 11:43:23;;;;;;;1.77;1.67;;;21.90;85.60;;;;;;5344954;26;20243;-85
2024/05/04 11:45:52;;;;;;;1.40;1.30;;;21.90;85.50;;;;;;5344234;26;20348;-83
2024/05/04 11:48:24;;;;;;;1.55;1.38;;;22.20;87.40;;;;;;5348185;26;20244;-85
2024/05/04 11:50:53;;;;;;;1.13;1.00;;;22.10;83.60;;;;;;5347808;26;20251;-81
2024/05/04 11:53:21;;;;;;;1.23;1.15;;;21.60;83.80;;;;;;5348381;26;20383;-83
2024/05/04 11:55:50;;;;;;;1.17;1.08;;;21.50;87.10;;;;;;5346834;26;20266;-84
2024/05/04 11:58:19;;;;;;;1.45;1.17;;;21.80;85.80;;;;;;5345931;26;20248;-83
2024/05/04 12:00:48;;;;;;;1.30;1.15;;;22.20;87.40;;;;;;5348976;26;20243;-82
2024/05/04 12:03:17;;;;;;;1.20;1.10;;;22.70;88.70;;;;;;5348548;26;20295;-80
2024/05/04 12:05:48;;;;;;;0.77;0.77;;;23.00;87.80;;;;;;5347755;26;20243;-81
2024/05/04 12:08:17;;;;;;;1.10;1.00;;;23.50;83.80;;;;;;5345009;26;21492;-83
2024/05/04 12:10:46;;;;;;;1.25;0.93;;;23.60;84.50;;;;;;5345169;26;20332;-80
2024/05/04 12:13:15;;;;;;;0.80;0.80;;;23.10;83.30;;;;;;5347406;26;20255;-80
2024/05/04 12:15:43;;;;;;;1.02;0.88;;;23.10;86.80;;;;;;5349048;26;20386;-82
2024/05/04 12:18:12;;;;;;;1.20;1.00;;;23.20;82.70;;;;;;5350396;26;20243;-81
2024/05/04 12:20:41;;;;;;;0.70;0.70;;;23.30;83.30;;;;;;5348137;26;20243;-79
2024/05/04 12:23:12;;;;;;;3.83;0.80;;;23.50;85.50;;;;;;5348808;26;20294;-81
2024/05/04 12:25:41;;;;;;;0.90;0.90;;;23.60;81.50;;;;;;5346421;26;20295;-80
2024/05/04 12:28:10;;;;;;;1.45;1.20;;;23.30;81.60;;;;;;5346729;26;20243;-81
2024/05/04 12:30:38;;;;;;;0.90;0.90;;;23.30;78.50;;;;;;5336532;26;20263;-80
2024/05/04 12:33:07;;;;;;;1.95;0.88;;;23.30;79.30;;;;;;5344222;26;20361;-81
2024/05/04 12:35:36;;;;;;;0.88;0.88;;;23.40;80.80;;;;;;5346216;26;20931;-82
2024/05/04 12:38:09;;;;;;;1.10;0.95;;;23.40;79.60;;;;;;5346971;26;20344;-81
2024/05/04 12:40:43;;;;;;;0.80;0.80;;;23.50;81.30;;;;;;5346673;26;20332;-80
2024/05/04 12:43:11;;;;;;;0.80;0.80;;;23.50;78.30;;;;;;5346391;26;20266;-82
2024/05/04 12:45:40;;;;;;;1.15;1.00;;;23.70;79.60;;;;;;5348862;26;20307;-79
2024/05/04 12:48:09;;;;;;;1.42;1.33;;;23.70;79.10;;;;;;5349134;26;20361;-81
2024/05/04 12:50:39;;;;;;;0.98;0.98;;;23.50;79.50;;;;;;5343050;26;20336;-81
2024/05/04 12:53:08;;;;;;;0.85;0.80;;;23.30;82.10;;;;;;5345876;26;20726;-81
2024/05/04 12:55:36;;;;;;;2.05;1.00;;;23.10;80.40;;;;;;5344449;26;20257;-80
2024/05/04 12:58:08;;;;;;;1.10;1.00;;;23.00;81.50;;;;;;5348010;26;20278;-81
2024/05/04 13:00:38;;;;;;;0.85;0.85;;;23.10;81.70;;;;;;5345860;26;20358;-79
2024/05/04 13:03:07;;;;;;;1.10;1.00;;;23.20;82.70;;;;;;5346431;26;20350;-81